Terminal Aerodrome Forecast
Issued by NWS

Home | Current Version | Previous Version | Text Only | Print | Product List | Glossary On
Versions: 1 2 3 4 5 6 7 8 9 10 11 12 13 14 15 16 17 18
017
FTAK31 PAJN 261126
TAFAPG
TAF
PAPG 261126Z 2612/2712 08005KT P6SM -RA BKN010 OVC030 WS020/17025KT
     FM261400 10005KT 3SM -RA BR BKN005 BKN015 OVC040
     FM261900 15004KT 3SM RA BR SCT005 BKN015 OVC025 WS020/18025KT
      AMD LTD TO CLD VIS AND WIND 2612/2615=

USA.gov is the U.S. government's official web portal to all federal, state and local government web resources and services.